sensor_id;sensor_type;location;lat;lon;timestamp;temperature;humidity
39099;DHT22;24844;52.380;7.018;2022-12-16T00:01:13;-1.30;99.90
39099;DHT22;24844;52.380;7.018;2022-12-16T00:03:39;-1.30;99.90
39099;DHT22;24844;52.380;7.018;2022-12-16T00:06:06;-1.30;99.90
39099;DHT22;24844;52.380;7.018;2022-12-16T00:08:34;-1.30;99.90
39099;DHT22;24844;52.380;7.018;2022-12-16T00:11:00;-1.30;99.90
39099;DHT22;24844;52.380;7.018;2022-12-16T00:13:28;-1.30;99.90
39099;DHT22;24844;52.380;7.018;2022-12-16T00:15:53;-1.40;99.90
39099;DHT22;24844;52.380;7.018;2022-12-16T00:18:19;-1.40;99.90
39099;DHT22;24844;52.380;7.018;2022-12-16T00:20:50;-1.20;99.90
39099;DHT22;24844;52.380;7.018;2022-12-16T00:23:16;-1.10;99.90
39099;DHT22;24844;52.380;7.018;2022-12-16T00:25:43;-0.80;99.90
39099;DHT22;24844;52.380;7.018;2022-12-16T00:28:09;-0.50;99.90
39099;DHT22;24844;52.380;7.018;2022-12-16T00:30:36;-0.10;99.90
39099;DHT22;24844;52.380;7.018;2022-12-16T00:33:02;0.00;99.90
39099;DHT22;24844;52.380;7.018;2022-12-16T00:35:28;0.10;99.90
39099;DHT22;24844;52.380;7.018;2022-12-16T00:37:55;0.20;99.90
39099;DHT22;24844;52.380;7.018;2022-12-16T00:40:20;0.20;99.90
39099;DHT22;24844;52.380;7.018;2022-12-16T00:42:46;0.00;99.90
39099;DHT22;24844;52.380;7.018;2022-12-16T00:45:12;0.20;99.90
39099;DHT22;24844;52.380;7.018;2022-12-16T00:47:37;0.20;99.90
39099;DHT22;24844;52.380;7.018;2022-12-16T00:50:03;-0.20;99.90
39099;DHT22;24844;52.380;7.018;2022-12-16T00:52:29;0.10;99.90
39099;DHT22;24844;52.380;7.018;2022-12-16T00:54:54;0.40;99.90
39099;DHT22;24844;52.380;7.018;2022-12-16T00:57:21;0.50;99.90
39099;DHT22;24844;52.380;7.018;2022-12-16T00:59:46;0.60;99.90
39099;DHT22;24844;52.380;7.018;2022-12-16T01:02:12;0.40;99.90
39099;DHT22;24844;52.380;7.018;2022-12-16T01:04:38;0.40;99.90
39099;DHT22;24844;52.380;7.018;2022-12-16T01:07:03;0.40;99.90
39099;DHT22;24844;52.380;7.018;2022-12-16T01:09:29;0.40;99.90
39099;DHT22;24844;52.380;7.018;2022-12-16T01:11:55;0.30;99.90
39099;DHT22;24844;52.380;7.018;2022-12-16T01:14:20;0.20;99.90
39099;DHT22;24844;52.380;7.018;2022-12-16T01:16:46;0.00;99.90
39099;DHT22;24844;52.380;7.018;2022-12-16T01:19:11;-0.20;99.90
39099;DHT22;24844;52.380;7.018;2022-12-16T01:21:37;-0.20;99.90
39099;DHT22;24844;52.380;7.018;2022-12-16T01:24:03;-0.20;99.90
39099;DHT22;24844;52.380;7.018;2022-12-16T01:26:29;0.00;99.90
39099;DHT22;24844;52.380;7.018;2022-12-16T01:28:56;0.50;99.90
39099;DHT22;24844;52.380;7.018;2022-12-16T01:31:22;0.80;99.90
39099;DHT22;24844;52.380;7.018;2022-12-16T01:33:48;1.00;99.90
39099;DHT22;24844;52.380;7.018;2022-12-16T01:36:14;0.90;99.90
39099;DHT22;24844;52.380;7.018;2022-12-16T01:38:41;0.90;99.90
39099;DHT22;24844;52.380;7.018;2022-12-16T01:41:08;1.20;99.90
39099;DHT22;24844;52.380;7.018;2022-12-16T01:43:36;1.30;99.90
39099;DHT22;24844;52.380;7.018;2022-12-16T01:48:53;0.70;99.90
39099;DHT22;24844;52.380;7.018;2022-12-16T01:51:36;0.70;99.90
39099;DHT22;24844;52.380;7.018;2022-12-16T01:54:06;0.80;99.90
39099;DHT22;24844;52.380;7.018;2022-12-16T01:56:34;0.80;99.90
39099;DHT22;24844;52.380;7.018;2022-12-16T01:59:02;0.90;99.90
39099;DHT22;24844;52.380;7.018;2022-12-16T02:01:28;1.10;99.90
39099;DHT22;24844;52.380;7.018;2022-12-16T02:03:56;1.10;99.90
39099;DHT22;24844;52.380;7.018;2022-12-16T02:06:23;0.80;99.90
39099;DHT22;24844;52.380;7.018;2022-12-16T02:08:51;0.20;99.90
39099;DHT22;24844;52.380;7.018;2022-12-16T02:11:43;0.00;99.90
39099;DHT22;24844;52.380;7.018;2022-12-16T02:23:14;0.30;99.90
39099;DHT22;24844;52.380;7.018;2022-12-16T02:31:59;0.90;99.90
39099;DHT22;24844;52.380;7.018;2022-12-16T02:37:13;1.00;99.90
39099;DHT22;24844;52.380;7.018;2022-12-16T02:42:18;1.40;99.90
39099;DHT22;24844;52.380;7.018;2022-12-16T02:45:05;1.50;99.90
39099;DHT22;24844;52.380;7.018;2022-12-16T02:47:32;1.30;99.90
39099;DHT22;24844;52.380;7.018;2022-12-16T02:49:58;1.00;99.90
39099;DHT22;24844;52.380;7.018;2022-12-16T02:52:26;1.10;99.90
39099;DHT22;24844;52.380;7.018;2022-12-16T02:55:00;1.20;99.90
39099;DHT22;24844;52.380;7.018;2022-12-16T03:00:45;0.50;99.90
39099;DHT22;24844;52.380;7.018;2022-12-16T03:03:23;0.40;99.90
39099;DHT22;24844;52.380;7.018;2022-12-16T03:05:53;0.50;99.90
39099;DHT22;24844;52.380;7.018;2022-12-16T03:08:21;0.40;99.90
39099;DHT22;24844;52.380;7.018;2022-12-16T03:11:01;0.40;99.90
39099;DHT22;24844;52.380;7.018;2022-12-16T03:13:32;0.40;99.90
39099;DHT22;24844;52.380;7.018;2022-12-16T03:16:00;0.40;99.90
39099;DHT22;24844;52.380;7.018;2022-12-16T03:18:27;0.20;99.90
39099;DHT22;24844;52.380;7.018;2022-12-16T03:21:02;0.20;99.90
39099;DHT22;24844;52.380;7.018;2022-12-16T03:23:49;0.30;99.90
39099;DHT22;24844;52.380;7.018;2022-12-16T03:26:30;0.50;99.90
39099;DHT22;24844;52.380;7.018;2022-12-16T03:34:13;0.80;99.90
39099;DHT22;24844;52.380;7.018;2022-12-16T03:36:44;0.30;99.90
39099;DHT22;24844;52.380;7.018;2022-12-16T03:39:14;0.00;99.90
39099;DHT22;24844;52.380;7.018;2022-12-16T03:41:42;0.30;99.90
39099;DHT22;24844;52.380;7.018;2022-12-16T03:44:08;0.30;99.90
39099;DHT22;24844;52.380;7.018;2022-12-16T03:46:34;0.50;99.90
39099;DHT22;24844;52.380;7.018;2022-12-16T03:48:59;0.70;99.90
39099;DHT22;24844;52.380;7.018;2022-12-16T03:51:25;0.80;99.90
39099;DHT22;24844;52.380;7.018;2022-12-16T03:53:51;1.00;99.90
39099;DHT22;24844;52.380;7.018;2022-12-16T03:56:16;1.20;99.90
39099;DHT22;24844;52.380;7.018;2022-12-16T03:58:42;1.20;99.90
39099;DHT22;24844;52.380;7.018;2022-12-16T04:01:09;1.30;99.90
39099;DHT22;24844;52.380;7.018;2022-12-16T04:03:35;1.50;99.90
39099;DHT22;24844;52.380;7.018;2022-12-16T04:06:01;1.60;99.90
39099;DHT22;24844;52.380;7.018;2022-12-16T04:08:27;1.70;99.90
39099;DHT22;24844;52.380;7.018;2022-12-16T04:10:52;1.70;99.90
39099;DHT22;24844;52.380;7.018;2022-12-16T04:13:37;1.80;99.90
39099;DHT22;24844;52.380;7.018;2022-12-16T04:16:22;1.80;99.90
39099;DHT22;24844;52.380;7.018;2022-12-16T04:19:31;1.90;99.90
39099;DHT22;24844;52.380;7.018;2022-12-16T04:22:23;1.70;99.90
39099;DHT22;24844;52.380;7.018;2022-12-16T04:25:23;1.80;99.90
39099;DHT22;24844;52.380;7.018;2022-12-16T04:27:49;1.60;99.90
39099;DHT22;24844;52.380;7.018;2022-12-16T04:30:16;1.70;99.90
39099;DHT22;24844;52.380;7.018;2022-12-16T04:32:47;1.90;99.90
39099;DHT22;24844;52.380;7.018;2022-12-16T04:35:33;1.70;99.90
39099;DHT22;24844;52.380;7.018;2022-12-16T04:38:17;1.30;99.90
39099;DHT22;24844;52.380;7.018;2022-12-16T04:41:01;1.10;99.90
39099;DHT22;24844;52.380;7.018;2022-12-16T04:43:46;0.80;99.90
39099;DHT22;24844;52.380;7.018;2022-12-16T04:46:30;0.40;99.90
39099;DHT22;24844;52.380;7.018;2022-12-16T04:49:14;0.50;99.90
39099;DHT22;24844;52.380;7.018;2022-12-16T04:51:58;0.50;99.90
39099;DHT22;24844;52.380;7.018;2022-12-16T04:54:42;0.70;99.90
39099;DHT22;24844;52.380;7.018;2022-12-16T04:57:26;0.90;99.90
39099;DHT22;24844;52.380;7.018;2022-12-16T05:00:11;0.90;99.90
39099;DHT22;24844;52.380;7.018;2022-12-16T05:02:55;1.10;99.90
39099;DHT22;24844;52.380;7.018;2022-12-16T05:05:40;1.20;99.90
39099;DHT22;24844;52.380;7.018;2022-12-16T05:08:24;1.30;99.90
39099;DHT22;24844;52.380;7.018;2022-12-16T05:11:08;1.50;99.90
39099;DHT22;24844;52.380;7.018;2022-12-16T05:13:52;1.40;99.90
39099;DHT22;24844;52.380;7.018;2022-12-16T05:16:36;1.60;99.90
39099;DHT22;24844;52.380;7.018;2022-12-16T05:19:20;1.50;99.90
39099;DHT22;24844;52.380;7.018;2022-12-16T05:22:04;1.50;99.90
39099;DHT22;24844;52.380;7.018;2022-12-16T05:24:48;1.50;99.90
39099;DHT22;24844;52.380;7.018;2022-12-16T05:27:32;1.60;99.90
39099;DHT22;24844;52.380;7.018;2022-12-16T05:30:16;1.70;99.90
39099;DHT22;24844;52.380;7.018;2022-12-16T05:33:00;1.80;99.90
39099;DHT22;24844;52.380;7.018;2022-12-16T05:35:45;1.70;99.90
39099;DHT22;24844;52.380;7.018;2022-12-16T05:38:29;1.70;99.90
39099;DHT22;24844;52.380;7.018;2022-12-16T05:41:13;1.70;99.90
39099;DHT22;24844;52.380;7.018;2022-12-16T05:43:57;1.30;99.90
39099;DHT22;24844;52.380;7.018;2022-12-16T05:46:41;1.50;99.90
39099;DHT22;24844;52.380;7.018;2022-12-16T05:49:25;1.50;99.90
39099;DHT22;24844;52.380;7.018;2022-12-16T05:52:09;1.40;99.90
39099;DHT22;24844;52.380;7.018;2022-12-16T05:54:53;1.30;99.90
39099;DHT22;24844;52.380;7.018;2022-12-16T05:57:37;1.30;99.90
39099;DHT22;24844;52.380;7.018;2022-12-16T06:00:21;1.30;99.90
39099;DHT22;24844;52.380;7.018;2022-12-16T06:03:05;1.20;99.90
39099;DHT22;24844;52.380;7.018;2022-12-16T06:05:49;1.30;99.90
39099;DHT22;24844;52.380;7.018;2022-12-16T06:08:33;1.30;99.90
39099;DHT22;24844;52.380;7.018;2022-12-16T06:11:17;1.40;99.90
39099;DHT22;24844;52.380;7.018;2022-12-16T06:14:01;1.00;99.90
39099;DHT22;24844;52.380;7.018;2022-12-16T06:16:46;0.80;99.90
39099;DHT22;24844;52.380;7.018;2022-12-16T06:19:30;0.60;99.90
39099;DHT22;24844;52.380;7.018;2022-12-16T06:22:14;0.50;99.90
39099;DHT22;24844;52.380;7.018;2022-12-16T06:24:58;0.10;99.90
39099;DHT22;24844;52.380;7.018;2022-12-16T06:27:42;0.00;99.90
39099;DHT22;24844;52.380;7.018;2022-12-16T06:30:31;0.00;99.90
39099;DHT22;24844;52.380;7.018;2022-12-16T06:33:15;0.00;99.90
39099;DHT22;24844;52.380;7.018;2022-12-16T06:35:59;-0.20;99.90
39099;DHT22;24844;52.380;7.018;2022-12-16T06:38:43;-0.20;99.90
39099;DHT22;24844;52.380;7.018;2022-12-16T06:41:27;-0.30;99.90
39099;DHT22;24844;52.380;7.018;2022-12-16T06:44:11;-0.30;99.90
39099;DHT22;24844;52.380;7.018;2022-12-16T06:46:56;-0.30;99.90
39099;DHT22;24844;52.380;7.018;2022-12-16T06:49:40;0.00;99.90
39099;DHT22;24844;52.380;7.018;2022-12-16T06:52:24;0.00;99.90
39099;DHT22;24844;52.380;7.018;2022-12-16T06:55:08;0.40;99.90
39099;DHT22;24844;52.380;7.018;2022-12-16T06:57:56;0.50;99.90
39099;DHT22;24844;52.380;7.018;2022-12-16T07:00:40;0.50;99.90
39099;DHT22;24844;52.380;7.018;2022-12-16T07:03:24;0.50;99.90
39099;DHT22;24844;52.380;7.018;2022-12-16T07:06:08;0.20;99.90
39099;DHT22;24844;52.380;7.018;2022-12-16T07:08:53;-0.10;99.90
39099;DHT22;24844;52.380;7.018;2022-12-16T07:11:37;-0.30;99.90
39099;DHT22;24844;52.380;7.018;2022-12-16T07:14:21;-0.10;99.90
39099;DHT22;24844;52.380;7.018;2022-12-16T07:17:05;0.00;99.90
39099;DHT22;24844;52.380;7.018;2022-12-16T07:19:49;-0.20;99.90
39099;DHT22;24844;52.380;7.018;2022-12-16T07:22:33;0.10;99.90
39099;DHT22;24844;52.380;7.018;2022-12-16T07:25:17;0.50;99.90
39099;DHT22;24844;52.380;7.018;2022-12-16T07:28:01;0.70;99.90
39099;DHT22;24844;52.380;7.018;2022-12-16T07:30:45;0.70;99.90
39099;DHT22;24844;52.380;7.018;2022-12-16T07:33:29;0.20;99.90
39099;DHT22;24844;52.380;7.018;2022-12-16T07:36:13;-0.10;99.90
39099;DHT22;24844;52.380;7.018;2022-12-16T07:38:58;0.00;99.90
39099;DHT22;24844;52.380;7.018;2022-12-16T07:41:42;0.10;99.90
39099;DHT22;24844;52.380;7.018;2022-12-16T07:44:28;0.00;99.90
39099;DHT22;24844;52.380;7.018;2022-12-16T07:47:12;0.00;99.90
39099;DHT22;24844;52.380;7.018;2022-12-16T07:49:56;-0.10;99.90
39099;DHT22;24844;52.380;7.018;2022-12-16T07:52:40;-0.30;99.90
39099;DHT22;24844;52.380;7.018;2022-12-16T07:55:24;-0.30;99.90
39099;DHT22;24844;52.380;7.018;2022-12-16T07:58:09;-0.30;99.90
39099;DHT22;24844;52.380;7.018;2022-12-16T08:00:53;-0.30;99.90
39099;DHT22;24844;52.380;7.018;2022-12-16T08:03:37;-0.30;99.90
39099;DHT22;24844;52.380;7.018;2022-12-16T08:06:21;-0.20;99.90
39099;DHT22;24844;52.380;7.018;2022-12-16T08:09:05;0.10;99.90
39099;DHT22;24844;52.380;7.018;2022-12-16T08:11:49;-0.10;99.90
39099;DHT22;24844;52.380;7.018;2022-12-16T08:14:33;-0.20;99.90
39099;DHT22;24844;52.380;7.018;2022-12-16T08:17:17;-0.40;99.90
39099;DHT22;24844;52.380;7.018;2022-12-16T08:20:02;-0.20;99.90
39099;DHT22;24844;52.380;7.018;2022-12-16T08:22:45;-0.20;99.90
39099;DHT22;24844;52.380;7.018;2022-12-16T08:25:30;-0.30;99.90
39099;DHT22;24844;52.380;7.018;2022-12-16T08:28:14;-0.20;99.90
39099;DHT22;24844;52.380;7.018;2022-12-16T08:30:58;-0.40;99.90
39099;DHT22;24844;52.380;7.018;2022-12-16T08:33:42;-0.50;99.90
39099;DHT22;24844;52.380;7.018;2022-12-16T08:36:26;-0.50;99.90
39099;DHT22;24844;52.380;7.018;2022-12-16T08:39:10;-0.50;99.90
39099;DHT22;24844;52.380;7.018;2022-12-16T08:41:54;-0.60;99.90
39099;DHT22;24844;52.380;7.018;2022-12-16T08:44:48;-0.60;99.90
39099;DHT22;24844;52.380;7.018;2022-12-16T08:47:33;-0.50;99.90
39099;DHT22;24844;52.380;7.018;2022-12-16T08:50:17;-0.40;99.90
39099;DHT22;24844;52.380;7.018;2022-12-16T08:53:01;-0.20;99.90
39099;DHT22;24844;52.380;7.018;2022-12-16T08:55:45;-0.10;99.90
39099;DHT22;24844;52.380;7.018;2022-12-16T08:58:29;-0.20;99.90
39099;DHT22;24844;52.380;7.018;2022-12-16T09:01:13;-0.40;99.90
39099;DHT22;24844;52.380;7.018;2022-12-16T09:03:57;-0.50;99.90
39099;DHT22;24844;52.380;7.018;2022-12-16T09:06:41;-0.40;99.90
39099;DHT22;24844;52.380;7.018;2022-12-16T09:09:25;-0.20;99.90
39099;DHT22;24844;52.380;7.018;2022-12-16T09:12:09;-0.20;99.90
39099;DHT22;24844;52.380;7.018;2022-12-16T09:14:53;-0.30;99.90
39099;DHT22;24844;52.380;7.018;2022-12-16T09:17:37;-0.10;99.90
39099;DHT22;24844;52.380;7.018;2022-12-16T09:20:21;0.00;99.90
39099;DHT22;24844;52.380;7.018;2022-12-16T09:23:05;0.50;99.90
39099;DHT22;24844;52.380;7.018;2022-12-16T09:25:49;0.80;99.90
39099;DHT22;24844;52.380;7.018;2022-12-16T09:28:33;0.90;99.90
39099;DHT22;24844;52.380;7.018;2022-12-16T09:31:17;1.30;99.90
39099;DHT22;24844;52.380;7.018;2022-12-16T09:34:01;1.40;99.90
39099;DHT22;24844;52.380;7.018;2022-12-16T09:36:45;1.10;99.90
39099;DHT22;24844;52.380;7.018;2022-12-16T09:39:29;0.90;99.90
39099;DHT22;24844;52.380;7.018;2022-12-16T09:42:29;0.60;99.90
39099;DHT22;24844;52.380;7.018;2022-12-16T09:48:58;0.30;99.90
39099;DHT22;24844;52.380;7.018;2022-12-16T09:51:46;0.20;99.90
39099;DHT22;24844;52.380;7.018;2022-12-16T09:54:33;0.50;99.90
39099;DHT22;24844;52.380;7.018;2022-12-16T09:57:19;0.50;99.90
39099;DHT22;24844;52.380;7.018;2022-12-16T10:00:21;0.80;99.90
39099;DHT22;24844;52.380;7.018;2022-12-16T10:03:23;1.00;99.90
39099;DHT22;24844;52.380;7.018;2022-12-16T10:13:38;0.50;99.90
39099;DHT22;24844;52.380;7.018;2022-12-16T10:16:19;0.70;99.90
39099;DHT22;24844;52.380;7.018;2022-12-16T10:25:22;0.40;99.90
39099;DHT22;24844;52.380;7.018;2022-12-16T10:28:16;0.20;99.90
39099;DHT22;24844;52.380;7.018;2022-12-16T10:31:01;-0.10;99.90
39099;DHT22;24844;52.380;7.018;2022-12-16T10:33:48;0.00;99.90
39099;DHT22;24844;52.380;7.018;2022-12-16T10:36:35;0.10;99.90
39099;DHT22;24844;52.380;7.018;2022-12-16T10:39:40;0.10;99.90
39099;DHT22;24844;52.380;7.018;2022-12-16T10:42:31;0.20;99.90
39099;DHT22;24844;52.380;7.018;2022-12-16T10:45:24;0.20;99.90
39099;DHT22;24844;52.380;7.018;2022-12-16T10:48:10;0.50;99.90
39099;DHT22;24844;52.380;7.018;2022-12-16T10:50:57;0.80;99.90
39099;DHT22;24844;52.380;7.018;2022-12-16T10:53:44;0.80;99.90
39099;DHT22;24844;52.380;7.018;2022-12-16T10:56:41;0.90;99.90
39099;DHT22;24844;52.380;7.018;2022-12-16T10:59:35;1.00;99.90
39099;DHT22;24844;52.380;7.018;2022-12-16T11:02:23;1.00;99.90
39099;DHT22;24844;52.380;7.018;2022-12-16T11:05:33;0.70;99.90
39099;DHT22;24844;52.380;7.018;2022-12-16T11:11:23;1.30;99.90
39099;DHT22;24844;52.380;7.018;2022-12-16T11:14:16;1.40;99.90
39099;DHT22;24844;52.380;7.018;2022-12-16T11:17:25;1.40;99.90
39099;DHT22;24844;52.380;7.018;2022-12-16T11:20:11;1.70;99.90
39099;DHT22;24844;52.380;7.018;2022-12-16T11:23:18;1.30;99.90
39099;DHT22;24844;52.380;7.018;2022-12-16T11:31:55;1.80;99.90
39099;DHT22;24844;52.380;7.018;2022-12-16T11:34:42;2.10;99.90
39099;DHT22;24844;52.380;7.018;2022-12-16T11:37:37;1.90;99.90
39099;DHT22;24844;52.380;7.018;2022-12-16T11:40:23;2.30;99.90
39099;DHT22;24844;52.380;7.018;2022-12-16T11:43:10;2.70;99.90
39099;DHT22;24844;52.380;7.018;2022-12-16T11:45:57;2.00;99.90
39099;DHT22;24844;52.380;7.018;2022-12-16T11:48:58;2.10;99.90
39099;DHT22;24844;52.380;7.018;2022-12-16T11:51:54;1.80;99.90
39099;DHT22;24844;52.380;7.018;2022-12-16T11:54:53;1.40;99.90
39099;DHT22;24844;52.380;7.018;2022-12-16T12:00:48;1.40;99.90
39099;DHT22;24844;52.380;7.018;2022-12-16T12:03:42;1.40;99.90
39099;DHT22;24844;52.380;7.018;2022-12-16T12:06:34;1.70;99.90
39099;DHT22;24844;52.380;7.018;2022-12-16T12:09:25;1.50;99.90
39099;DHT22;24844;52.380;7.018;2022-12-16T12:12:32;1.10;99.90
39099;DHT22;24844;52.380;7.018;2022-12-16T12:15:43;1.00;99.90
39099;DHT22;24844;52.380;7.018;2022-12-16T12:18:52;1.20;99.90
39099;DHT22;24844;52.380;7.018;2022-12-16T12:21:55;1.40;99.90
39099;DHT22;24844;52.380;7.018;2022-12-16T12:25:04;1.30;99.90
39099;DHT22;24844;52.380;7.018;2022-12-16T12:31:13;1.80;99.90
39099;DHT22;24844;52.380;7.018;2022-12-16T12:34:11;1.80;99.90
39099;DHT22;24844;52.380;7.018;2022-12-16T12:40:18;1.30;99.90
39099;DHT22;24844;52.380;7.018;2022-12-16T12:43:46;1.50;99.90
39099;DHT22;24844;52.380;7.018;2022-12-16T12:46:43;1.30;99.90
39099;DHT22;24844;52.380;7.018;2022-12-16T12:55:34;2.00;99.90
39099;DHT22;24844;52.380;7.018;2022-12-16T12:58:23;2.20;99.90
39099;DHT22;24844;52.380;7.018;2022-12-16T13:01:08;2.00;99.90
39099;DHT22;24844;52.380;7.018;2022-12-16T13:04:00;2.00;99.90
39099;DHT22;24844;52.380;7.018;2022-12-16T13:06:45;1.60;99.90
39099;DHT22;24844;52.380;7.018;2022-12-16T13:09:43;1.40;99.90
39099;DHT22;24844;52.380;7.018;2022-12-16T13:12:30;1.60;99.90
39099;DHT22;24844;52.380;7.018;2022-12-16T13:15:36;1.90;99.90
39099;DHT22;24844;52.380;7.018;2022-12-16T13:18:40;1.80;99.90
39099;DHT22;24844;52.380;7.018;2022-12-16T13:27:11;2.40;99.90
39099;DHT22;24844;52.380;7.018;2022-12-16T13:30:02;2.00;99.90
39099;DHT22;24844;52.380;7.018;2022-12-16T13:32:55;2.00;99.90
39099;DHT22;24844;52.380;7.018;2022-12-16T13:35:57;2.00;99.90
39099;DHT22;24844;52.380;7.018;2022-12-16T13:38:50;1.80;99.90
39099;DHT22;24844;52.380;7.018;2022-12-16T13:50:45;2.70;99.90
39099;DHT22;24844;52.380;7.018;2022-12-16T13:53:42;2.90;99.90
39099;DHT22;24844;52.380;7.018;2022-12-16T13:56:38;3.20;99.90
39099;DHT22;24844;52.380;7.018;2022-12-16T13:59:25;3.40;99.90
39099;DHT22;24844;52.380;7.018;2022-12-16T14:05:02;3.50;99.90
39099;DHT22;24844;52.380;7.018;2022-12-16T14:07:47;3.40;99.90
39099;DHT22;24844;52.380;7.018;2022-12-16T14:10:34;3.40;99.90
39099;DHT22;24844;52.380;7.018;2022-12-16T14:13:32;3.40;99.90
39099;DHT22;24844;52.380;7.018;2022-12-16T14:16:56;3.60;99.90
39099;DHT22;24844;52.380;7.018;2022-12-16T14:19:56;3.50;99.90
39099;DHT22;24844;52.380;7.018;2022-12-16T14:25:59;3.40;99.90
39099;DHT22;24844;52.380;7.018;2022-12-16T14:28:47;3.30;99.90
39099;DHT22;24844;52.380;7.018;2022-12-16T14:31:37;3.30;99.90
39099;DHT22;24844;52.380;7.018;2022-12-16T14:34:26;2.90;99.90
39099;DHT22;24844;52.380;7.018;2022-12-16T14:37:35;2.70;99.90
39099;DHT22;24844;52.380;7.018;2022-12-16T14:40:28;2.90;99.90
39099;DHT22;24844;52.380;7.018;2022-12-16T14:43:21;3.10;99.90
39099;DHT22;24844;52.380;7.018;2022-12-16T14:46:17;3.20;99.90
39099;DHT22;24844;52.380;7.018;2022-12-16T14:49:25;3.20;99.90
39099;DHT22;24844;52.380;7.018;2022-12-16T14:54:59;3.50;99.90
39099;DHT22;24844;52.380;7.018;2022-12-16T14:58:10;3.40;99.90
39099;DHT22;24844;52.380;7.018;2022-12-16T15:01:02;3.70;99.90
39099;DHT22;24844;52.380;7.018;2022-12-16T15:03:49;3.70;99.90
39099;DHT22;24844;52.380;7.018;2022-12-16T15:06:44;3.60;99.90
39099;DHT22;24844;52.380;7.018;2022-12-16T15:09:38;3.70;99.90
39099;DHT22;24844;52.380;7.018;2022-12-16T15:12:28;3.70;99.90
39099;DHT22;24844;52.380;7.018;2022-12-16T15:15:17;3.80;99.90
39099;DHT22;24844;52.380;7.018;2022-12-16T15:18:02;3.70;99.90
39099;DHT22;24844;52.380;7.018;2022-12-16T15:20:53;3.40;99.90
39099;DHT22;24844;52.380;7.018;2022-12-16T15:23:39;3.10;99.90
39099;DHT22;24844;52.380;7.018;2022-12-16T15:26:27;2.60;99.90
39099;DHT22;24844;52.380;7.018;2022-12-16T15:29:32;2.40;99.90
39099;DHT22;24844;52.380;7.018;2022-12-16T15:32:31;2.90;99.90
39099;DHT22;24844;52.380;7.018;2022-12-16T15:41:05;3.20;99.90
39099;DHT22;24844;52.380;7.018;2022-12-16T15:43:49;3.20;99.90
39099;DHT22;24844;52.380;7.018;2022-12-16T15:46:34;2.80;99.90
39099;DHT22;24844;52.380;7.018;2022-12-16T15:49:28;2.50;99.90
39099;DHT22;24844;52.380;7.018;2022-12-16T15:52:34;2.60;99.90
39099;DHT22;24844;52.380;7.018;2022-12-16T15:55:36;2.70;99.90
39099;DHT22;24844;52.380;7.018;2022-12-16T16:01:10;2.90;99.90
39099;DHT22;24844;52.380;7.018;2022-12-16T16:03:56;3.00;99.90
39099;DHT22;24844;52.380;7.018;2022-12-16T16:06:45;3.10;99.90
39099;DHT22;24844;52.380;7.018;2022-12-16T16:09:31;3.10;99.90
39099;DHT22;24844;52.380;7.018;2022-12-16T16:12:18;3.20;99.90
39099;DHT22;24844;52.380;7.018;2022-12-16T16:15:04;2.70;99.90
39099;DHT22;24844;52.380;7.018;2022-12-16T16:17:53;2.50;99.90
39099;DHT22;24844;52.380;7.018;2022-12-16T16:20:38;2.90;99.90
39099;DHT22;24844;52.380;7.018;2022-12-16T16:23:22;3.00;99.90
39099;DHT22;24844;52.380;7.018;2022-12-16T16:26:10;3.20;99.90
39099;DHT22;24844;52.380;7.018;2022-12-16T16:29:11;3.20;99.90
39099;DHT22;24844;52.380;7.018;2022-12-16T16:31:55;3.10;99.90
39099;DHT22;24844;52.380;7.018;2022-12-16T16:34:40;3.10;99.90
39099;DHT22;24844;52.380;7.018;2022-12-16T16:37:24;3.10;99.90
39099;DHT22;24844;52.380;7.018;2022-12-16T16:40:35;3.20;99.90
39099;DHT22;24844;52.380;7.018;2022-12-16T16:43:20;3.40;99.90
39099;DHT22;24844;52.380;7.018;2022-12-16T16:49:07;3.40;99.90
39099;DHT22;24844;52.380;7.018;2022-12-16T16:51:51;3.40;99.90
39099;DHT22;24844;52.380;7.018;2022-12-16T16:54:35;3.20;99.90
39099;DHT22;24844;52.380;7.018;2022-12-16T16:57:19;3.20;99.90
39099;DHT22;24844;52.380;7.018;2022-12-16T17:00:04;3.00;99.90
39099;DHT22;24844;52.380;7.018;2022-12-16T17:02:48;3.00;99.90
39099;DHT22;24844;52.380;7.018;2022-12-16T17:05:32;3.10;99.90
39099;DHT22;24844;52.380;7.018;2022-12-16T17:08:16;3.30;99.90
39099;DHT22;24844;52.380;7.018;2022-12-16T17:11:01;3.30;99.90
39099;DHT22;24844;52.380;7.018;2022-12-16T17:13:45;3.30;99.90
39099;DHT22;24844;52.380;7.018;2022-12-16T17:16:29;3.30;99.90
39099;DHT22;24844;52.380;7.018;2022-12-16T17:19:13;3.30;99.90
39099;DHT22;24844;52.380;7.018;2022-12-16T17:21:57;3.40;99.90
39099;DHT22;24844;52.380;7.018;2022-12-16T17:24:41;3.50;99.90
39099;DHT22;24844;52.380;7.018;2022-12-16T17:27:27;3.10;99.90
39099;DHT22;24844;52.380;7.018;2022-12-16T17:30:16;2.90;99.90
39099;DHT22;24844;52.380;7.018;2022-12-16T17:33:00;2.90;99.90
39099;DHT22;24844;52.380;7.018;2022-12-16T17:35:47;2.80;99.90
39099;DHT22;24844;52.380;7.018;2022-12-16T17:38:36;2.60;99.90
39099;DHT22;24844;52.380;7.018;2022-12-16T17:41:21;2.30;99.90
39099;DHT22;24844;52.380;7.018;2022-12-16T17:44:05;2.10;99.90
39099;DHT22;24844;52.380;7.018;2022-12-16T17:46:49;2.10;99.90
39099;DHT22;24844;52.380;7.018;2022-12-16T17:49:33;2.00;99.90
39099;DHT22;24844;52.380;7.018;2022-12-16T17:52:17;1.80;99.90
39099;DHT22;24844;52.380;7.018;2022-12-16T17:55:01;1.60;99.90
39099;DHT22;24844;52.380;7.018;2022-12-16T17:57:45;1.60;99.90
39099;DHT22;24844;52.380;7.018;2022-12-16T18:00:29;2.20;99.90
39099;DHT22;24844;52.380;7.018;2022-12-16T18:03:13;1.90;99.90
39099;DHT22;24844;52.380;7.018;2022-12-16T18:05:57;2.10;99.90
39099;DHT22;24844;52.380;7.018;2022-12-16T18:08:42;1.80;99.90
39099;DHT22;24844;52.380;7.018;2022-12-16T18:11:26;1.60;99.90
39099;DHT22;24844;52.380;7.018;2022-12-16T18:14:10;1.70;99.90
39099;DHT22;24844;52.380;7.018;2022-12-16T18:16:54;1.60;99.90
39099;DHT22;24844;52.380;7.018;2022-12-16T18:19:38;1.30;99.90
39099;DHT22;24844;52.380;7.018;2022-12-16T18:22:22;1.20;99.90
39099;DHT22;24844;52.380;7.018;2022-12-16T18:25:06;1.10;99.90
39099;DHT22;24844;52.380;7.018;2022-12-16T18:28:04;1.10;99.90
39099;DHT22;24844;52.380;7.018;2022-12-16T18:30:48;1.20;99.90
39099;DHT22;24844;52.380;7.018;2022-12-16T18:33:32;1.20;99.90
39099;DHT22;24844;52.380;7.018;2022-12-16T18:36:17;1.40;99.90
39099;DHT22;24844;52.380;7.018;2022-12-16T18:39:01;1.30;99.90
39099;DHT22;24844;52.380;7.018;2022-12-16T18:41:45;1.70;99.90
39099;DHT22;24844;52.380;7.018;2022-12-16T18:44:31;1.90;99.90
39099;DHT22;24844;52.380;7.018;2022-12-16T18:47:16;2.00;99.90
39099;DHT22;24844;52.380;7.018;2022-12-16T18:50:00;1.70;99.90
39099;DHT22;24844;52.380;7.018;2022-12-16T18:52:44;2.10;99.90
39099;DHT22;24844;52.380;7.018;2022-12-16T18:55:29;2.00;99.90
39099;DHT22;24844;52.380;7.018;2022-12-16T18:58:13;2.20;99.90
39099;DHT22;24844;52.380;7.018;2022-12-16T19:01:06;2.00;99.90
39099;DHT22;24844;52.380;7.018;2022-12-16T19:03:51;1.90;99.90
39099;DHT22;24844;52.380;7.018;2022-12-16T19:06:35;1.90;99.90
39099;DHT22;24844;52.380;7.018;2022-12-16T19:09:20;1.80;99.90
39099;DHT22;24844;52.380;7.018;2022-12-16T19:12:04;1.40;99.90
39099;DHT22;24844;52.380;7.018;2022-12-16T19:14:48;1.10;99.90
39099;DHT22;24844;52.380;7.018;2022-12-16T19:17:32;1.20;99.90